createdAt,value
2022-12-03T00:00:55.457Z,91.69
2022-12-03T00:01:55.465Z,91.06
2022-12-03T00:02:55.542Z,91.16
2022-12-03T00:03:55.587Z,91.47
2022-12-03T00:04:55.686Z,92.10
2022-12-03T00:05:55.418Z,91.37
2022-12-03T00:06:55.415Z,91.79
2022-12-03T00:07:55.513Z,91.58
2022-12-03T00:08:55.371Z,90.64
2022-12-03T00:09:55.389Z,90.85
2022-12-03T00:10:55.374Z,90.75
2022-12-03T00:11:55.363Z,91.00
2022-12-03T00:12:55.362Z,91.52
2022-12-03T00:13:55.347Z,91.20
2022-12-03T00:14:55.690Z,90.95
2022-12-03T00:15:56.148Z,91.69
2022-12-03T00:16:55.307Z,90.85
2022-12-03T00:17:55.286Z,91.47
2022-12-03T00:18:55.284Z,91.89
2022-12-03T00:19:55.287Z,91.31
2022-12-03T00:20:55.242Z,90.95
2022-12-03T00:21:55.264Z,91.31
2022-12-03T00:22:55.231Z,91.72
2022-12-03T00:23:55.232Z,91.62
2022-12-03T00:24:55.525Z,91.47
2022-12-03T00:25:55.208Z,91.52
2022-12-03T00:26:55.205Z,91.52
2022-12-03T00:27:55.193Z,91.47
2022-12-03T00:28:55.163Z,91.52
2022-12-03T00:29:55.168Z,91.79
2022-12-03T00:30:55.195Z,90.85
2022-12-03T00:31:55.171Z,90.47
2022-12-03T00:32:55.145Z,90.89
2022-12-03T00:33:55.141Z,90.78
2022-12-03T00:34:55.339Z,91.52
2022-12-03T00:35:55.127Z,91.20
2022-12-03T00:36:55.088Z,91.10
2022-12-03T00:37:55.117Z,91.10
2022-12-03T00:38:55.089Z,91.00
2022-12-03T00:39:55.085Z,91.10
2022-12-03T00:40:55.057Z,91.00
2022-12-03T00:41:55.064Z,91.10
2022-12-03T00:42:55.032Z,91.20
2022-12-03T00:43:55.046Z,91.00
2022-12-03T00:44:55.462Z,91.00
2022-12-03T00:45:56.006Z,91.10
2022-12-03T00:46:55.138Z,91.72
2022-12-03T00:47:54.990Z,91.94
2022-12-03T00:48:54.979Z,91.31
2022-12-03T00:49:54.992Z,91.10
2022-12-03T00:50:54.959Z,91.62
2022-12-03T00:51:54.952Z,91.62
2022-12-03T00:52:54.943Z,92.46
2022-12-03T00:53:54.961Z,92.04
2022-12-03T00:54:55.248Z,91.31
2022-12-03T00:55:54.935Z,91.41
2022-12-03T00:56:54.899Z,91.41
2022-12-03T00:57:54.897Z,91.52
2022-12-03T00:58:54.901Z,92.14
2022-12-03T00:59:54.978Z,92.14
2022-12-03T01:00:54.852Z,92.56
2022-12-03T01:01:55.036Z,92.66
2022-12-03T01:02:54.832Z,92.77
2022-12-03T01:03:54.840Z,92.35
2022-12-03T01:04:54.982Z,92.63
2022-12-03T01:05:54.823Z,92.31
2022-12-03T01:06:54.787Z,91.89
2022-12-03T01:07:54.862Z,91.89
2022-12-03T01:08:54.781Z,92.31
2022-12-03T01:09:54.779Z,92.88
2022-12-03T01:10:54.773Z,92.25
2022-12-03T01:11:54.752Z,92.77
2022-12-03T01:12:54.723Z,93.19
2022-12-03T01:13:54.738Z,92.35
2022-12-03T01:14:55.063Z,92.25
2022-12-03T01:15:54.774Z,92.56
2022-12-03T01:16:54.685Z,93.19
2022-12-03T01:17:54.682Z,92.66
2022-12-03T01:18:54.670Z,92.66
2022-12-03T01:19:54.699Z,92.46
2022-12-03T01:20:54.637Z,92.66
2022-12-03T01:21:54.646Z,92.88
2022-12-03T01:22:54.634Z,93.29
2022-12-03T01:23:54.622Z,93.19
2022-12-03T01:24:54.861Z,93.08
2022-12-03T01:25:54.625Z,93.08
2022-12-03T01:26:54.586Z,93.08
2022-12-03T01:27:54.590Z,93.23
2022-12-03T01:28:54.570Z,93.33
2022-12-03T01:29:54.576Z,93.54
2022-12-03T01:30:54.625Z,93.76
2022-12-03T01:31:54.539Z,93.96
2022-12-03T01:32:54.529Z,93.96
2022-12-03T01:33:54.518Z,93.54
2022-12-03T01:34:54.895Z,93.65
2022-12-03T01:35:54.512Z,93.65
2022-12-03T01:36:54.491Z,94.07
2022-12-03T01:37:54.476Z,94.27
2022-12-03T01:38:54.462Z,93.86
2022-12-03T01:39:54.467Z,93.86
2022-12-03T01:40:54.440Z,93.86
2022-12-03T01:41:54.446Z,93.86
2022-12-03T01:42:54.469Z,93.86
2022-12-03T01:43:54.424Z,93.96
2022-12-03T01:44:54.832Z,94.27
2022-12-03T01:45:54.413Z,93.96
2022-12-03T01:46:54.494Z,93.76
2022-12-03T01:47:54.383Z,93.86
2022-12-03T01:48:54.377Z,94.27
2022-12-03T01:49:54.391Z,94.49
2022-12-03T01:50:54.345Z,94.23
2022-12-03T01:51:54.365Z,93.82
2022-12-03T01:52:54.333Z,93.71
2022-12-03T01:53:54.318Z,93.71
2022-12-03T01:54:54.628Z,93.82
2022-12-03T01:55:54.297Z,93.86
2022-12-03T01:56:54.282Z,93.65
2022-12-03T01:57:54.288Z,93.82
2022-12-03T01:58:54.290Z,93.76
2022-12-03T01:59:54.252Z,93.86
2022-12-03T02:00:54.295Z,93.86
2022-12-03T02:01:54.282Z,93.96
2022-12-03T02:02:54.242Z,93.96
2022-12-03T02:03:54.283Z,93.96
2022-12-03T02:04:54.627Z,94.17
2022-12-03T02:05:54.190Z,93.96
2022-12-03T02:06:54.205Z,94.17
2022-12-03T02:07:54.289Z,94.07
2022-12-03T02:08:54.192Z,93.76
2022-12-03T02:09:54.288Z,93.86
2022-12-03T02:10:54.144Z,94.17
2022-12-03T02:11:54.167Z,94.07
2022-12-03T02:12:54.162Z,93.86
2022-12-03T02:13:54.116Z,94.07
2022-12-03T02:14:54.416Z,94.38
2022-12-03T02:15:54.155Z,94.17
2022-12-03T02:16:54.088Z,93.76
2022-12-03T02:17:54.073Z,94.07
2022-12-03T02:18:54.076Z,94.07
2022-12-03T02:19:54.071Z,94.07
2022-12-03T02:20:54.034Z,94.27
2022-12-03T02:21:54.045Z,94.27
2022-12-03T02:22:54.012Z,94.07
2022-12-03T02:23:54.047Z,94.38
2022-12-03T02:24:54.245Z,94.38
2022-12-03T02:25:54.004Z,94.07
2022-12-03T02:26:53.981Z,94.07
2022-12-03T02:27:53.997Z,94.23
2022-12-03T02:28:53.956Z,94.13
2022-12-03T02:29:53.967Z,94.23
2022-12-03T02:30:53.936Z,93.92
2022-12-03T02:31:53.993Z,93.92
2022-12-03T02:32:53.929Z,93.92
2022-12-03T02:33:53.915Z,93.92
2022-12-03T02:34:54.172Z,94.34
2022-12-03T02:35:55.289Z,94.65
2022-12-03T02:36:53.882Z,94.23
2022-12-03T02:37:53.871Z,94.23
2022-12-03T02:38:53.860Z,94.13
2022-12-03T02:39:53.864Z,93.92
2022-12-03T02:40:53.838Z,94.02
2022-12-03T02:41:53.830Z,94.13
2022-12-03T02:42:53.847Z,94.02
2022-12-03T02:43:53.823Z,94.02
2022-12-03T02:44:54.015Z,94.23
2022-12-03T02:45:53.806Z,94.23
2022-12-03T02:46:53.805Z,93.92
2022-12-03T02:47:53.774Z,93.71
2022-12-03T02:48:53.939Z,93.92
2022-12-03T02:49:53.762Z,94.13
2022-12-03T02:50:53.767Z,93.82
2022-12-03T02:51:53.736Z,94.34
2022-12-03T02:52:53.718Z,94.55
2022-12-03T02:53:53.715Z,94.13
2022-12-03T02:54:53.919Z,94.27
2022-12-03T02:55:53.701Z,94.38
2022-12-03T02:56:53.695Z,94.27
2022-12-03T02:57:53.669Z,94.80
2022-12-03T02:58:53.683Z,94.80
2022-12-03T02:59:53.669Z,94.65
2022-12-03T03:00:53.685Z,94.07
2022-12-03T03:01:53.700Z,94.27
2022-12-03T03:02:53.623Z,94.49
2022-12-03T03:03:53.620Z,94.70
2022-12-03T03:04:53.917Z,94.80
2022-12-03T03:05:53.605Z,94.80
2022-12-03T03:06:53.576Z,94.90
2022-12-03T03:07:53.640Z,95.01
2022-12-03T03:08:53.565Z,95.32
2022-12-03T03:09:53.556Z,95.53
2022-12-03T03:10:53.597Z,94.90
2022-12-03T03:11:53.553Z,94.59
2022-12-03T03:12:53.516Z,94.27
2022-12-03T03:13:53.527Z,94.38
2022-12-03T03:14:53.912Z,94.38
2022-12-03T03:15:53.585Z,94.59
2022-12-03T03:16:53.570Z,94.90
2022-12-03T03:17:53.468Z,95.32
2022-12-03T03:18:53.459Z,95.21
2022-12-03T03:19:53.492Z,95.11
2022-12-03T03:20:53.426Z,95.11
2022-12-03T03:21:53.455Z,95.11
2022-12-03T03:22:53.437Z,95.07
2022-12-03T03:23:53.405Z,95.38
2022-12-03T03:24:53.703Z,94.55
2022-12-03T03:25:53.401Z,94.34
2022-12-03T03:26:53.387Z,94.76
2022-12-03T03:27:53.388Z,94.86
2022-12-03T03:28:53.366Z,94.86
2022-12-03T03:29:53.351Z,95.07
2022-12-03T03:30:53.343Z,94.86
2022-12-03T03:31:53.392Z,94.44
2022-12-03T03:32:53.323Z,94.49
2022-12-03T03:33:53.302Z,95.17
2022-12-03T03:34:53.674Z,95.17
2022-12-03T03:35:53.300Z,95.07
2022-12-03T03:36:53.291Z,95.28
2022-12-03T03:37:53.292Z,95.38
2022-12-03T03:38:53.270Z,94.76
2022-12-03T03:39:53.251Z,94.65
2022-12-03T03:40:53.282Z,94.65
2022-12-03T03:41:53.235Z,95.28
2022-12-03T03:42:53.240Z,94.23
2022-12-03T03:43:53.223Z,93.92
2022-12-03T03:44:53.512Z,93.71
2022-12-03T03:45:53.226Z,94.02
2022-12-03T03:46:53.216Z,94.34
2022-12-03T03:47:53.204Z,94.02
2022-12-03T03:48:53.152Z,93.82
2022-12-03T03:49:53.168Z,93.61
2022-12-03T03:50:53.146Z,93.92
2022-12-03T03:51:53.148Z,93.92
2022-12-03T03:52:53.128Z,94.55
2022-12-03T03:53:53.107Z,94.23
2022-12-03T03:54:53.319Z,94.02
2022-12-03T03:55:53.098Z,94.34
2022-12-03T03:56:53.087Z,93.61
2022-12-03T03:57:53.080Z,93.29
2022-12-03T03:58:53.084Z,93.29
2022-12-03T03:59:53.059Z,93.71
2022-12-03T04:00:53.058Z,94.13
2022-12-03T04:01:53.035Z,94.23
2022-12-03T04:02:53.015Z,94.55
2022-12-03T04:03:53.092Z,94.34
2022-12-03T04:04:53.374Z,94.23
2022-12-03T04:05:52.987Z,94.44
2022-12-03T04:06:52.987Z,94.55
2022-12-03T04:07:53.055Z,94.34
2022-12-03T04:08:52.959Z,94.13
2022-12-03T04:09:52.972Z,94.23
2022-12-03T04:10:52.939Z,94.55
2022-12-03T04:11:52.917Z,94.13
2022-12-03T04:12:52.924Z,93.50
2022-12-03T04:13:52.913Z,93.61
2022-12-03T04:14:53.187Z,93.33
2022-12-03T04:15:52.888Z,93.54
2022-12-03T04:16:52.955Z,93.33
2022-12-03T04:17:52.871Z,93.13
2022-12-03T04:18:52.854Z,93.44
2022-12-03T04:19:52.858Z,93.33
2022-12-03T04:20:52.861Z,93.65
2022-12-03T04:21:52.835Z,93.65
2022-12-03T04:22:52.852Z,93.44
2022-12-03T04:23:52.797Z,93.23
2022-12-03T04:24:53.185Z,93.54
2022-12-03T04:25:52.813Z,94.07
2022-12-03T04:26:52.794Z,93.96
2022-12-03T04:27:52.769Z,93.44
2022-12-03T04:28:52.766Z,92.71
2022-12-03T04:29:52.732Z,92.50
2022-12-03T04:30:52.806Z,92.82
2022-12-03T04:31:52.756Z,92.60
2022-12-03T04:32:52.712Z,92.60
2022-12-03T04:33:52.698Z,93.02
2022-12-03T04:34:53.025Z,93.33
2022-12-03T04:35:52.740Z,92.92
2022-12-03T04:36:52.774Z,92.82
2022-12-03T04:37:52.677Z,92.85
2022-12-03T07:35:21.367Z,93.95
2022-12-03T07:36:22.337Z,94.15
2022-12-03T07:37:23.434Z,93.63
2022-12-03T07:38:22.310Z,93.42
2022-12-03T07:39:22.278Z,93.21
2022-12-03T07:40:22.292Z,93.32
2022-12-03T07:41:22.257Z,93.11
2022-12-03T07:42:22.265Z,93.32
2022-12-03T07:43:22.228Z,93.11
2022-12-03T07:44:22.234Z,93.11
2022-12-03T07:45:22.277Z,93.11
2022-12-03T07:46:22.300Z,93.52
2022-12-03T07:47:22.194Z,93.42
2022-12-03T07:48:22.188Z,93.84
2022-12-03T07:49:22.198Z,93.21
2022-12-03T07:50:22.164Z,92.38
2022-12-03T07:51:24.189Z,92.38
2022-12-03T07:52:22.126Z,92.16
2022-12-03T07:53:22.128Z,92.48
2022-12-03T07:54:22.143Z,92.90
2022-12-03T07:55:22.126Z,93.42
2022-12-03T07:56:22.114Z,93.95
2022-12-03T07:57:22.114Z,93.95
2022-12-03T07:58:22.135Z,93.74
2022-12-03T07:59:25.426Z,93.42
2022-12-03T08:00:22.067Z,93.01
2022-12-03T08:01:22.133Z,92.79
2022-12-03T08:02:22.233Z,92.85
2022-12-03T08:03:22.022Z,92.65
2022-12-03T08:04:22.001Z,92.75
2022-12-03T08:05:22.038Z,92.96
2022-12-03T08:06:21.998Z,93.27
2022-12-03T08:07:21.980Z,93.59
2022-12-03T08:08:21.982Z,92.33
2022-12-03T08:09:21.959Z,92.44
2022-12-03T08:10:21.944Z,91.39
2022-12-03T08:11:21.990Z,91.50
2022-12-03T08:12:21.944Z,92.13
2022-12-03T08:13:21.936Z,91.81
2022-12-03T08:14:21.919Z,91.43
2022-12-03T08:15:21.962Z,92.48
2022-12-03T08:16:21.981Z,93.11
2022-12-03T08:17:21.927Z,94.42
2022-12-03T08:18:21.871Z,93.17
2022-12-03T08:19:21.883Z,93.17
2022-12-03T08:20:21.863Z,92.85
2022-12-03T08:21:21.843Z,92.65
2022-12-03T08:22:21.839Z,92.75
2022-12-03T08:23:21.826Z,92.02
2022-12-03T08:24:21.807Z,91.75
2022-12-03T08:25:21.813Z,92.38
2022-12-03T08:26:21.799Z,91.96
2022-12-03T08:27:21.804Z,92.69
2022-12-03T08:28:21.762Z,92.58
2022-12-03T08:29:21.772Z,92.48
2022-12-03T08:30:21.748Z,92.38
2022-12-03T08:31:21.760Z,92.58
2022-12-03T08:32:21.816Z,92.90
2022-12-03T08:33:21.724Z,92.94
2022-12-03T08:34:21.727Z,92.94
2022-12-03T08:35:21.715Z,93.04
2022-12-03T08:36:21.688Z,93.15
2022-12-03T08:37:21.699Z,93.26
2022-12-03T08:38:21.693Z,93.57
2022-12-03T08:39:21.664Z,92.94
2022-12-03T08:40:21.635Z,92.63
2022-12-03T08:41:21.681Z,92.42
2022-12-03T08:42:21.639Z,92.10
2022-12-03T08:43:21.628Z,91.89
2022-12-03T08:44:21.681Z,92.21
2022-12-03T08:45:21.618Z,92.31
2022-12-03T08:46:21.779Z,92.10
2022-12-03T08:47:21.593Z,92.00
2022-12-03T08:48:21.576Z,92.00
2022-12-03T08:49:21.584Z,92.31
2022-12-03T08:50:21.563Z,92.10
2022-12-03T08:51:21.602Z,92.31
2022-12-03T08:52:21.522Z,92.42
2022-12-03T08:53:21.534Z,92.63
2022-12-03T08:54:21.524Z,92.63
2022-12-03T08:55:21.514Z,92.21
2022-12-03T08:56:21.473Z,92.42
2022-12-03T08:57:21.583Z,92.83
2022-12-03T08:58:21.467Z,92.79
2022-12-03T08:59:21.474Z,93.59
2022-12-03T09:00:21.462Z,93.23
2022-12-03T09:01:21.557Z,90.41
2022-12-03T09:02:21.430Z,89.72
2022-12-03T09:03:21.416Z,90.56
2022-12-03T09:04:21.493Z,90.56
2022-12-03T09:05:21.399Z,89.72
2022-12-03T09:06:21.396Z,90.18
2022-12-03T09:07:21.606Z,90.28
2022-12-03T09:08:21.475Z,91.02
2022-12-03T09:09:21.381Z,91.12
2022-12-03T09:10:21.386Z,91.37
2022-12-03T09:11:21.348Z,91.85
2022-12-03T09:12:21.311Z,92.16
2022-12-03T09:13:21.324Z,91.43
2022-12-03T09:14:21.324Z,91.85
2022-12-03T09:15:21.311Z,91.22
2022-12-03T09:16:21.380Z,91.64
2022-12-03T09:17:21.291Z,92.48
2022-12-03T09:18:21.285Z,92.16
2022-12-03T09:19:21.321Z,91.43
2022-12-03T09:20:21.240Z,90.91
2022-12-03T09:21:21.283Z,91.02
2022-12-03T09:22:21.220Z,91.12
2022-12-03T09:23:21.221Z,91.02
2022-12-03T09:24:21.219Z,91.75
2022-12-03T09:25:21.229Z,91.33
2022-12-03T09:26:21.182Z,91.12
2022-12-03T09:27:21.190Z,90.91
2022-12-03T09:28:21.163Z,91.33
2022-12-03T09:29:21.181Z,91.33
2022-12-03T09:30:21.133Z,90.59
2022-12-03T09:31:21.163Z,90.70
2022-12-03T09:32:21.244Z,90.70
2022-12-03T09:33:21.139Z,90.59
2022-12-03T09:34:21.121Z,90.81
2022-12-03T09:35:21.113Z,90.70
2022-12-03T09:36:21.100Z,90.81
2022-12-03T09:37:21.065Z,90.49
2022-12-03T09:38:21.066Z,91.12
2022-12-03T09:39:21.062Z,91.12
2022-12-03T09:40:21.050Z,91.02
2022-12-03T09:41:21.043Z,91.54
2022-12-03T09:42:21.024Z,91.64
2022-12-03T09:43:21.011Z,91.54
2022-12-03T09:44:20.985Z,90.70
2022-12-03T09:45:20.994Z,90.39
2022-12-03T09:46:21.133Z,90.59
2022-12-03T09:47:20.981Z,90.49
2022-12-03T09:48:20.971Z,90.28
2022-12-03T09:49:20.952Z,89.55
2022-12-03T09:50:20.940Z,90.18
2022-12-03T09:51:20.946Z,89.86
2022-12-03T09:52:20.924Z,89.97
2022-12-03T09:53:20.907Z,91.12
2022-12-03T09:54:20.923Z,91.18
2022-12-03T09:55:20.898Z,90.77
2022-12-03T09:56:20.871Z,89.51
2022-12-03T09:57:20.930Z,90.08
2022-12-03T09:58:20.858Z,89.65
2022-12-03T09:59:20.855Z,89.97
2022-12-03T10:00:20.903Z,90.49
2022-12-03T10:01:20.939Z,90.70
2022-12-03T10:02:20.821Z,90.59
2022-12-03T10:03:24.085Z,90.49
2022-12-03T10:04:20.895Z,90.59
2022-12-03T10:05:20.803Z,91.02
2022-12-03T10:06:20.784Z,90.39
2022-12-03T10:07:20.792Z,90.18
2022-12-03T10:08:20.871Z,90.49
2022-12-03T10:09:20.792Z,90.28
2022-12-03T10:10:20.748Z,90.59
2022-12-03T10:11:20.742Z,90.18
2022-12-03T10:12:20.813Z,90.66
2022-12-03T10:13:25.464Z,89.72
2022-12-03T10:14:20.741Z,88.99
2022-12-03T10:15:20.705Z,89.34
2022-12-03T10:16:20.741Z,89.03
2022-12-03T10:17:20.686Z,89.34
2022-12-03T10:18:20.677Z,89.45
2022-12-03T10:19:20.655Z,90.14
2022-12-03T10:20:20.623Z,89.40
2022-12-03T10:21:20.645Z,89.09
2022-12-03T10:22:20.624Z,89.61
2022-12-03T10:23:20.623Z,89.51
2022-12-03T10:24:20.599Z,90.45
2022-12-03T10:25:20.585Z,89.93
2022-12-03T10:26:20.596Z,88.67
2022-12-03T10:27:20.562Z,88.88
2022-12-03T10:28:20.584Z,89.09
2022-12-03T10:29:20.559Z,89.13
2022-12-03T10:30:20.549Z,89.83
2022-12-03T10:31:20.650Z,89.30
2022-12-03T10:32:20.539Z,89.40
2022-12-03T10:33:20.502Z,89.61
2022-12-03T10:34:20.513Z,89.55
2022-12-03T10:35:20.489Z,89.86
2022-12-03T10:36:20.482Z,90.39
2022-12-03T10:37:20.458Z,90.59
2022-12-03T10:38:20.471Z,90.14
2022-12-03T10:39:20.460Z,89.93
2022-12-03T10:40:20.486Z,89.72
2022-12-03T10:41:20.428Z,89.72
2022-12-03T10:42:20.449Z,89.55
2022-12-03T10:43:20.400Z,90.14
2022-12-03T10:44:20.415Z,90.66
2022-12-03T10:45:20.396Z,91.08
2022-12-03T10:46:20.541Z,90.03
2022-12-03T10:47:20.467Z,89.40
2022-12-03T10:48:20.356Z,89.61
2022-12-03T10:49:20.334Z,89.51
2022-12-03T10:50:20.364Z,89.72
2022-12-03T10:51:20.324Z,90.18
2022-12-03T10:52:25.476Z,90.81
2022-12-03T10:53:20.310Z,91.22
2022-12-03T10:54:20.293Z,91.54
2022-12-03T10:55:20.316Z,91.43
2022-12-03T10:56:20.330Z,91.64
2022-12-03T10:57:20.259Z,91.54
2022-12-03T10:58:20.253Z,91.69
2022-12-03T10:59:20.286Z,92.42
2022-12-03T11:00:20.263Z,92.63
2022-12-03T11:01:20.329Z,92.63
2022-12-03T11:02:20.238Z,92.73
2022-12-03T11:03:20.258Z,92.83
2022-12-03T11:04:20.204Z,92.83
2022-12-03T11:05:20.211Z,92.94
2022-12-03T11:06:20.175Z,92.94
2022-12-03T11:07:20.159Z,92.73
2022-12-03T11:08:20.231Z,92.73
2022-12-03T11:09:20.147Z,92.94
2022-12-03T11:10:20.154Z,93.11
2022-12-03T11:11:20.163Z,93.11
2022-12-03T11:12:20.143Z,92.90
2022-12-03T11:13:20.117Z,92.38
2022-12-03T11:14:23.046Z,92.27
2022-12-03T11:15:20.106Z,92.48
2022-12-03T11:16:20.150Z,92.27
2022-12-03T11:17:20.103Z,92.38
2022-12-03T11:18:20.062Z,92.38
2022-12-03T11:19:20.203Z,92.63
2022-12-03T11:20:22.939Z,92.73
2022-12-03T11:21:20.024Z,92.94
2022-12-03T11:22:20.013Z,92.48
2022-12-03T11:23:20.049Z,93.01
2022-12-03T11:24:20.055Z,92.79
2022-12-03T11:25:19.984Z,92.73
2022-12-03T11:26:20.137Z,92.69
2022-12-03T11:27:19.964Z,92.79
2022-12-03T11:28:19.965Z,93.52
2022-12-03T11:29:19.944Z,93.11
2022-12-03T11:30:19.949Z,92.69
2022-12-03T11:31:19.994Z,93.01
2022-12-03T11:32:19.917Z,93.32
2022-12-03T11:33:19.910Z,92.48
2022-12-03T11:34:19.922Z,91.96
2022-12-03T11:35:19.880Z,92.38
2022-12-03T11:36:36.331Z,92.52
2022-12-03T11:37:19.853Z,92.83
2022-12-03T11:38:19.849Z,93.04
2022-12-03T11:39:19.868Z,92.94
2022-12-03T11:40:19.863Z,93.26
2022-12-03T11:41:19.834Z,93.46
2022-12-03T11:42:19.814Z,93.78
2022-12-03T11:43:19.801Z,93.46
2022-12-03T11:44:19.794Z,93.67
2022-12-03T11:45:19.817Z,93.78
2022-12-03T11:46:19.892Z,93.57
2022-12-03T11:47:19.770Z,93.36
2022-12-03T11:48:19.765Z,93.57
2022-12-03T11:49:19.750Z,94.20
2022-12-03T11:50:19.729Z,94.26
2022-12-03T11:51:19.758Z,93.21
2022-12-03T11:52:19.749Z,92.83
2022-12-03T11:53:19.732Z,92.94
2022-12-03T11:54:19.709Z,92.94
2022-12-03T11:55:19.686Z,93.26
2022-12-03T11:56:19.676Z,93.40
2022-12-03T11:57:19.664Z,93.82
2022-12-03T11:58:19.674Z,94.13
2022-12-03T11:59:19.646Z,94.24
2022-12-03T12:00:19.668Z,94.51
2022-12-03T12:01:19.619Z,93.99
2022-12-03T12:02:19.611Z,93.99
2022-12-03T12:03:19.726Z,93.88
2022-12-03T12:04:19.696Z,93.99
2022-12-03T12:05:19.586Z,94.20
2022-12-03T12:06:19.613Z,94.09
2022-12-03T12:07:19.573Z,94.20
2022-12-03T12:08:19.689Z,93.88
2022-12-03T12:09:19.528Z,93.57
2022-12-03T12:10:19.530Z,93.71
2022-12-03T12:11:19.549Z,93.71
2022-12-03T12:12:19.519Z,93.93
2022-12-03T12:13:19.523Z,94.24
2022-12-03T12:14:19.498Z,94.45
2022-12-03T12:15:19.480Z,94.45
2022-12-03T12:16:19.526Z,94.34
2022-12-03T12:17:19.470Z,94.66
2022-12-03T12:18:19.484Z,94.66
2022-12-03T12:19:19.451Z,94.34
2022-12-03T12:20:19.433Z,94.45
2022-12-03T12:21:19.463Z,94.34
2022-12-03T12:22:19.449Z,94.24
2022-12-03T12:23:19.398Z,94.34
2022-12-03T12:24:19.415Z,94.66
2022-12-03T12:25:19.375Z,94.76
2022-12-03T12:26:19.367Z,94.24
2022-12-03T12:27:19.375Z,94.13
2022-12-03T12:28:19.362Z,94.24
2022-12-03T12:29:19.345Z,94.03
2022-12-03T12:30:19.348Z,94.34
2022-12-03T12:31:19.355Z,94.24
2022-12-03T12:32:19.315Z,94.34
2022-12-03T12:33:19.299Z,94.03
2022-12-03T12:34:19.289Z,93.82
2022-12-03T12:35:19.312Z,93.82
2022-12-03T12:36:19.276Z,93.61
2022-12-03T12:37:19.265Z,93.40
2022-12-03T12:38:19.247Z,92.88
2022-12-03T12:39:19.241Z,93.04
2022-12-03T12:40:19.251Z,92.88
2022-12-03T12:41:19.249Z,92.77
2022-12-03T12:42:19.225Z,93.04
2022-12-03T12:43:23.774Z,93.15
2022-12-03T12:44:19.201Z,92.52
2022-12-03T12:45:19.182Z,92.52
2022-12-03T12:46:46.615Z,93.04
2022-12-03T12:47:19.298Z,92.83
2022-12-03T12:48:19.153Z,92.83
2022-12-03T12:49:19.127Z,92.21
2022-12-03T12:50:19.138Z,92.10
2022-12-03T12:51:19.112Z,92.10
2022-12-03T12:52:19.180Z,92.21
2022-12-03T12:53:19.092Z,92.21
2022-12-03T12:54:19.103Z,92.10
2022-12-03T12:55:19.074Z,92.16
2022-12-03T12:56:19.073Z,92.27
2022-12-03T12:57:19.075Z,92.38
2022-12-03T12:58:19.054Z,92.58
2022-12-03T12:59:19.041Z,91.54
2022-12-03T13:00:19.045Z,91.16
2022-12-03T13:01:19.068Z,91.16
2022-12-03T13:02:19.091Z,91.37
2022-12-03T13:03:19.003Z,92.00
2022-12-03T13:04:19.017Z,92.83
2022-12-03T13:05:18.988Z,91.89
2022-12-03T13:06:18.979Z,91.79
2022-12-03T13:07:18.951Z,91.69
2022-12-03T13:08:19.043Z,91.89
2022-12-03T13:09:18.951Z,91.47
2022-12-03T13:10:18.918Z,91.62
2022-12-03T13:11:18.970Z,91.83
2022-12-03T13:12:18.911Z,92.10
2022-12-03T13:13:19.558Z,92.10
2022-12-03T13:14:18.901Z,92.00
2022-12-03T13:15:18.872Z,91.79
2022-12-03T13:16:18.964Z,91.89
2022-12-03T13:17:18.847Z,92.31
2022-12-03T13:18:18.862Z,92.00
2022-12-03T13:19:18.829Z,92.00
2022-12-03T13:20:18.843Z,91.79
2022-12-03T13:21:18.806Z,92.00
2022-12-03T13:22:18.817Z,91.69
2022-12-03T13:23:18.796Z,91.79
2022-12-03T13:24:18.815Z,91.89
2022-12-03T13:25:38.003Z,91.47
2022-12-03T13:26:32.852Z,91.37
2022-12-03T13:27:18.771Z,91.06
2022-12-03T13:28:18.758Z,90.74
2022-12-03T13:29:18.768Z,90.84
2022-12-03T13:30:18.787Z,91.16
2022-12-03T13:31:18.737Z,91.27
2022-12-03T13:32:18.714Z,91.89
2022-12-03T13:33:18.738Z,91.37
2022-12-03T13:34:18.719Z,90.64
2022-12-03T13:35:18.665Z,90.84
2022-12-03T13:36:18.679Z,91.06
2022-12-03T13:37:18.673Z,91.79
2022-12-03T13:38:18.680Z,91.79
2022-12-03T13:39:18.652Z,90.95
2022-12-03T13:40:18.642Z,90.74
2022-12-03T13:41:18.627Z,90.74
2022-12-03T13:42:18.616Z,90.53
2022-12-03T13:43:18.610Z,90.64
2022-12-03T13:44:18.614Z,90.84
2022-12-03T13:45:18.563Z,91.06
2022-12-03T13:46:18.663Z,91.16
2022-12-03T13:47:18.577Z,91.37
2022-12-03T13:48:18.576Z,91.58
2022-12-03T13:49:18.562Z,91.89
2022-12-03T13:50:18.549Z,92.21
2022-12-03T13:51:18.535Z,92.21
2022-12-03T13:52:18.537Z,92.10
2022-12-03T13:53:18.500Z,92.35
2022-12-03T13:54:18.523Z,92.57
2022-12-03T13:55:18.545Z,92.67
2022-12-03T13:56:18.487Z,93.08
2022-12-03T13:57:18.457Z,93.30
2022-12-03T13:58:18.445Z,93.30
2022-12-03T13:59:22.915Z,93.30
2022-12-03T14:00:18.476Z,93.61
2022-12-03T14:01:18.465Z,93.61
2022-12-03T14:02:18.492Z,93.82
2022-12-03T14:03:18.437Z,93.93
2022-12-03T14:04:18.394Z,94.03
2022-12-03T14:05:18.402Z,94.24
2022-12-03T14:06:18.370Z,94.03
2022-12-03T14:07:18.361Z,94.13
2022-12-03T14:08:18.390Z,94.13
2022-12-03T14:09:18.329Z,94.45
2022-12-03T14:10:18.344Z,94.34
2022-12-03T14:11:18.311Z,94.24
2022-12-03T14:12:18.313Z,94.24
2022-12-03T14:13:18.295Z,94.56
2022-12-03T14:14:18.328Z,94.56
2022-12-03T14:15:18.278Z,94.45
2022-12-03T14:16:18.310Z,94.13
2022-12-03T14:17:18.275Z,93.61
2022-12-03T14:18:18.258Z,93.82
2022-12-03T14:19:18.251Z,94.13
2022-12-03T14:20:18.219Z,94.13
2022-12-03T14:21:18.206Z,94.03
2022-12-03T14:22:18.200Z,94.03
2022-12-03T14:23:18.203Z,94.18
2022-12-03T14:24:18.207Z,94.38
2022-12-03T14:25:18.159Z,94.49
2022-12-03T14:26:18.176Z,94.56
2022-12-03T14:27:18.179Z,94.34
2022-12-03T14:28:18.139Z,94.13
2022-12-03T14:29:18.137Z,93.93
2022-12-03T14:30:18.129Z,94.18
2022-12-03T14:31:18.149Z,94.07
2022-12-03T14:32:18.217Z,94.18
2022-12-03T14:33:18.087Z,94.28
2022-12-03T14:34:18.133Z,94.38
2022-12-03T14:35:18.061Z,94.28
2022-12-03T14:36:18.072Z,94.28
2022-12-03T14:37:18.045Z,94.38
2022-12-03T14:38:18.031Z,94.49
2022-12-03T14:39:18.036Z,94.38
2022-12-03T14:40:21.469Z,94.38
2022-12-03T14:41:18.009Z,94.38
2022-12-03T14:42:17.980Z,94.49
2022-12-03T14:43:17.982Z,94.60
2022-12-03T14:44:17.960Z,94.70
2022-12-03T14:45:17.974Z,94.49
2022-12-03T14:46:18.215Z,94.91
2022-12-03T14:47:17.962Z,95.29
2022-12-03T14:48:17.930Z,94.56
2022-12-03T14:49:17.929Z,94.13
2022-12-03T14:50:17.901Z,93.82
2022-12-03T14:51:17.915Z,94.03
2022-12-03T14:52:17.907Z,94.18
2022-12-03T14:53:20.518Z,94.24
2022-12-03T14:54:17.859Z,94.45
2022-12-03T14:55:17.873Z,94.24
2022-12-03T14:56:17.852Z,94.76
2022-12-03T14:57:17.847Z,93.93
2022-12-03T14:58:17.843Z,93.61
2022-12-03T14:59:20.651Z,93.55
2022-12-03T15:00:17.802Z,93.76
2022-12-03T15:01:17.971Z,94.07
2022-12-03T15:02:17.872Z,94.07
2022-12-03T15:03:17.807Z,94.38
2022-12-03T15:04:17.769Z,94.28
2022-12-03T15:05:18.601Z,94.18
2022-12-03T15:06:17.750Z,94.28
2022-12-03T15:07:17.752Z,94.28
2022-12-03T15:08:17.754Z,94.60
2022-12-03T15:09:17.734Z,93.97
2022-12-03T15:10:17.712Z,93.97
2022-12-03T15:11:17.710Z,94.18
2022-12-03T15:12:17.693Z,94.07
2022-12-03T15:13:17.688Z,94.07
2022-12-03T15:14:17.655Z,94.18
2022-12-03T15:15:17.665Z,94.38
2022-12-03T15:16:17.733Z,94.70
2022-12-03T15:17:23.326Z,94.49
2022-12-03T15:18:17.629Z,94.38
2022-12-03T15:19:17.633Z,94.38
2022-12-03T15:20:17.597Z,94.18
2022-12-03T15:21:17.614Z,94.07
2022-12-03T15:22:17.625Z,94.38
2022-12-03T15:23:17.586Z,94.38
2022-12-03T15:24:17.573Z,93.97
2022-12-03T15:25:17.567Z,93.76
2022-12-03T15:26:17.587Z,93.44
2022-12-03T15:27:17.560Z,93.44
2022-12-03T15:28:17.539Z,93.44
2022-12-03T15:29:17.537Z,93.76
2022-12-03T15:30:17.493Z,93.44
2022-12-03T15:31:17.607Z,93.44
2022-12-03T15:32:17.498Z,93.76
2022-12-03T15:33:17.475Z,93.87
2022-12-03T15:34:22.478Z,93.65
2022-12-03T15:35:17.475Z,93.44
2022-12-03T15:36:17.463Z,93.24
2022-12-03T15:37:17.442Z,93.44
2022-12-03T15:38:17.418Z,93.34
2022-12-03T15:39:17.428Z,93.34
2022-12-03T15:40:17.396Z,93.44
2022-12-03T15:41:17.417Z,93.34
2022-12-03T15:42:17.378Z,93.34
2022-12-03T15:43:17.380Z,93.34
2022-12-03T15:44:17.373Z,93.55
2022-12-03T15:45:17.412Z,93.24
2022-12-03T15:46:17.437Z,93.24
2022-12-03T15:47:17.368Z,93.13
2022-12-03T15:48:17.353Z,93.24
2022-12-03T15:49:17.316Z,92.92